sensor_id;sensor_type;location;lat;lon;timestamp;temperature;humidity
21282;DHT22;10800;53.096;18.328;2023-02-28T02:18:43;-4.40;99.90
21282;DHT22;10800;53.096;18.328;2023-02-28T02:29:40;-4.40;99.90
21282;DHT22;10800;53.096;18.328;2023-02-28T02:40:19;-4.50;99.90
21282;DHT22;10800;53.096;18.328;2023-02-28T02:45:35;-4.50;99.90
21282;DHT22;10800;53.096;18.328;2023-02-28T02:50:41;-4.70;99.90
21282;DHT22;10800;53.096;18.328;2023-02-28T02:55:47;-4.70;99.90
21282;DHT22;10800;53.096;18.328;2023-02-28T03:00:57;-4.70;99.90
21282;DHT22;10800;53.096;18.328;2023-02-28T03:06:05;-4.70;99.90
21282;DHT22;10800;53.096;18.328;2023-02-28T03:11:12;-4.80;99.90
21282;DHT22;10800;53.096;18.328;2023-02-28T03:16:33;-4.90;99.90
21282;DHT22;10800;53.096;18.328;2023-02-28T03:21:53;-4.90;99.90
21282;DHT22;10800;53.096;18.328;2023-02-28T03:26:58;-5.00;99.90
21282;DHT22;10800;53.096;18.328;2023-02-28T03:32:24;-5.00;99.90
21282;DHT22;10800;53.096;18.328;2023-02-28T03:37:30;-5.10;99.90
21282;DHT22;10800;53.096;18.328;2023-02-28T03:42:39;-5.10;99.90
21282;DHT22;10800;53.096;18.328;2023-02-28T03:47:52;-5.00;99.90
21282;DHT22;10800;53.096;18.328;2023-02-28T03:53:02;-4.90;99.90
21282;DHT22;10800;53.096;18.328;2023-02-28T03:58:20;-4.90;99.90
21282;DHT22;10800;53.096;18.328;2023-02-28T04:03:22;-4.90;99.90
21282;DHT22;10800;53.096;18.328;2023-02-28T04:08:28;-5.00;99.90
21282;DHT22;10800;53.096;18.328;2023-02-28T04:13:33;-5.10;99.90
21282;DHT22;10800;53.096;18.328;2023-02-28T04:18:40;-5.00;99.90
21282;DHT22;10800;53.096;18.328;2023-02-28T04:23:47;-5.10;99.90
21282;DHT22;10800;53.096;18.328;2023-02-28T04:28:52;-5.10;99.90
21282;DHT22;10800;53.096;18.328;2023-02-28T04:33:58;-5.20;99.90
21282;DHT22;10800;53.096;18.328;2023-02-28T04:39:03;-5.30;99.90
21282;DHT22;10800;53.096;18.328;2023-02-28T04:44:09;-5.30;99.90
21282;DHT22;10800;53.096;18.328;2023-02-28T04:49:14;-5.40;99.90
21282;DHT22;10800;53.096;18.328;2023-02-28T04:54:20;-5.40;99.90
21282;DHT22;10800;53.096;18.328;2023-02-28T04:59:25;-5.40;99.90
21282;DHT22;10800;53.096;18.328;2023-02-28T05:04:30;-5.40;99.90
21282;DHT22;10800;53.096;18.328;2023-02-28T05:09:37;-5.50;99.90
21282;DHT22;10800;53.096;18.328;2023-02-28T05:14:42;-5.60;99.90
21282;DHT22;10800;53.096;18.328;2023-02-28T05:19:48;-5.40;99.90
21282;DHT22;10800;53.096;18.328;2023-02-28T05:24:53;-5.40;99.90
21282;DHT22;10800;53.096;18.328;2023-02-28T05:30:00;-5.40;99.90
21282;DHT22;10800;53.096;18.328;2023-02-28T05:35:10;-5.50;99.90
21282;DHT22;10800;53.096;18.328;2023-02-28T05:40:16;-5.40;99.90
21282;DHT22;10800;53.096;18.328;2023-02-28T05:45:21;-5.40;99.90
21282;DHT22;10800;53.096;18.328;2023-02-28T05:50:27;-5.30;99.90
21282;DHT22;10800;53.096;18.328;2023-02-28T05:55:32;-5.20;99.90
21282;DHT22;10800;53.096;18.328;2023-02-28T06:00:37;-5.20;99.90
21282;DHT22;10800;53.096;18.328;2023-02-28T06:05:44;-5.30;99.90
21282;DHT22;10800;53.096;18.328;2023-02-28T06:10:49;-5.20;99.90
21282;DHT22;10800;53.096;18.328;2023-02-28T06:15:54;-5.20;99.90
21282;DHT22;10800;53.096;18.328;2023-02-28T06:20:59;-5.10;99.90
21282;DHT22;10800;53.096;18.328;2023-02-28T06:26:05;-5.10;99.90
21282;DHT22;10800;53.096;18.328;2023-02-28T06:31:13;-4.90;99.90
21282;DHT22;10800;53.096;18.328;2023-02-28T06:36:19;-4.80;99.90
21282;DHT22;10800;53.096;18.328;2023-02-28T06:41:26;-4.40;99.90
21282;DHT22;10800;53.096;18.328;2023-02-28T06:46:32;-3.90;99.90
21282;DHT22;10800;53.096;18.328;2023-02-28T06:51:40;-3.30;99.90
21282;DHT22;10800;53.096;18.328;2023-02-28T06:56:46;-2.70;99.90
21282;DHT22;10800;53.096;18.328;2023-02-28T07:01:51;-2.00;99.90
21282;DHT22;10800;53.096;18.328;2023-02-28T07:06:56;-1.40;99.90
21282;DHT22;10800;53.096;18.328;2023-02-28T07:12:06;-0.70;99.90
21282;DHT22;10800;53.096;18.328;2023-02-28T07:17:12;0.00;99.90
21282;DHT22;10800;53.096;18.328;2023-02-28T07:22:17;0.40;99.90
21282;DHT22;10800;53.096;18.328;2023-02-28T07:27:22;1.10;99.90
21282;DHT22;10800;53.096;18.328;2023-02-28T07:32:30;1.70;99.90
21282;DHT22;10800;53.096;18.328;2023-02-28T07:37:35;2.20;99.90
21282;DHT22;10800;53.096;18.328;2023-02-28T07:42:44;2.70;99.90
21282;DHT22;10800;53.096;18.328;2023-02-28T07:47:49;2.90;99.90
21282;DHT22;10800;53.096;18.328;2023-02-28T07:52:55;3.70;99.90
21282;DHT22;10800;53.096;18.328;2023-02-28T07:58:00;4.30;99.90
21282;DHT22;10800;53.096;18.328;2023-02-28T08:03:06;4.70;99.90
21282;DHT22;10800;53.096;18.328;2023-02-28T08:08:11;5.10;99.90
21282;DHT22;10800;53.096;18.328;2023-02-28T08:13:17;4.80;99.90
21282;DHT22;10800;53.096;18.328;2023-02-28T08:18:23;5.40;99.30
21282;DHT22;10800;53.096;18.328;2023-02-28T08:23:29;5.90;96.90
21282;DHT22;10800;53.096;18.328;2023-02-28T08:28:38;6.10;97.10
21282;DHT22;10800;53.096;18.328;2023-02-28T08:33:44;6.90;93.70
21282;DHT22;10800;53.096;18.328;2023-02-28T08:38:50;7.40;91.60
21282;DHT22;10800;53.096;18.328;2023-02-28T08:43:55;7.90;90.50
21282;DHT22;10800;53.096;18.328;2023-02-28T08:49:00;7.90;84.80
21282;DHT22;10800;53.096;18.328;2023-02-28T08:59:18;8.30;86.60
21282;DHT22;10800;53.096;18.328;2023-02-28T09:04:23;8.40;84.40
21282;DHT22;10800;53.096;18.328;2023-02-28T09:09:29;8.60;87.90
21282;DHT22;10800;53.096;18.328;2023-02-28T09:14:34;8.70;84.40
21282;DHT22;10800;53.096;18.328;2023-02-28T09:19:39;9.10;83.80
21282;DHT22;10800;53.096;18.328;2023-02-28T09:24:44;8.70;77.10
21282;DHT22;10800;53.096;18.328;2023-02-28T09:29:50;8.40;83.60
21282;DHT22;10800;53.096;18.328;2023-02-28T09:34:55;8.60;80.80
21282;DHT22;10800;53.096;18.328;2023-02-28T09:40:01;8.30;79.80
21282;DHT22;10800;53.096;18.328;2023-02-28T09:45:22;8.50;79.60
21282;DHT22;10800;53.096;18.328;2023-02-28T09:50:39;8.70;79.40
21282;DHT22;10800;53.096;18.328;2023-02-28T09:55:51;8.90;80.20
21282;DHT22;10800;53.096;18.328;2023-02-28T10:01:00;8.30;77.80
21282;DHT22;10800;53.096;18.328;2023-02-28T10:06:20;9.10;80.60
21282;DHT22;10800;53.096;18.328;2023-02-28T10:11:27;9.60;76.50
21282;DHT22;10800;53.096;18.328;2023-02-28T10:16:48;10.10;73.10
21282;DHT22;10800;53.096;18.328;2023-02-28T10:22:13;10.60;68.90
21282;DHT22;10800;53.096;18.328;2023-02-28T10:27:23;9.50;68.70
21282;DHT22;10800;53.096;18.328;2023-02-28T10:32:34;9.20;68.40
21282;DHT22;10800;53.096;18.328;2023-02-28T10:37:42;9.60;70.50
21282;DHT22;10800;53.096;18.328;2023-02-28T10:43:07;9.40;72.00
21282;DHT22;10800;53.096;18.328;2023-02-28T11:03:42;9.50;68.90
21282;DHT22;10800;53.096;18.328;2023-02-28T11:08:50;10.10;69.30
21282;DHT22;10800;53.096;18.328;2023-02-28T11:14:02;10.20;66.90
21282;DHT22;10800;53.096;18.328;2023-02-28T11:19:06;10.80;66.20
21282;DHT22;10800;53.096;18.328;2023-02-28T11:24:26;11.10;64.20
21282;DHT22;10800;53.096;18.328;2023-02-28T11:29:33;11.10;63.20
21282;DHT22;10800;53.096;18.328;2023-02-28T11:34:46;11.10;62.30
21282;DHT22;10800;53.096;18.328;2023-02-28T11:39:52;10.80;61.50
21282;DHT22;10800;53.096;18.328;2023-02-28T11:56:20;9.50;64.10
21282;DHT22;10800;53.096;18.328;2023-02-28T12:01:38;9.50;68.20
21282;DHT22;10800;53.096;18.328;2023-02-28T12:07:00;10.10;63.90
21282;DHT22;10800;53.096;18.328;2023-02-28T12:12:10;10.10;62.90
21282;DHT22;10800;53.096;18.328;2023-02-28T12:17:25;9.40;66.20
21282;DHT22;10800;53.096;18.328;2023-02-28T12:22:30;9.40;61.80
21282;DHT22;10800;53.096;18.328;2023-02-28T12:27:41;9.30;65.60
21282;DHT22;10800;53.096;18.328;2023-02-28T12:33:02;9.40;65.30
21282;DHT22;10800;53.096;18.328;2023-02-28T12:38:35;9.60;64.40
21282;DHT22;10800;53.096;18.328;2023-02-28T12:43:27;9.60;63.70
21282;DHT22;10800;53.096;18.328;2023-02-28T12:48:42;9.40;62.50
21282;DHT22;10800;53.096;18.328;2023-02-28T12:54:02;8.80;63.40
21282;DHT22;10800;53.096;18.328;2023-02-28T12:59:48;8.70;60.80
21282;DHT22;10800;53.096;18.328;2023-02-28T13:04:27;8.50;61.90
21282;DHT22;10800;53.096;18.328;2023-02-28T13:09:33;8.50;62.50
21282;DHT22;10800;53.096;18.328;2023-02-28T13:14:39;8.20;61.60
21282;DHT22;10800;53.096;18.328;2023-02-28T13:19:58;8.10;59.70
21282;DHT22;10800;53.096;18.328;2023-02-28T13:52:12;8.20;61.70
21282;DHT22;10800;53.096;18.328;2023-02-28T13:57:31;8.10;61.40
21282;DHT22;10800;53.096;18.328;2023-02-28T14:08:15;7.80;61.00
21282;DHT22;10800;53.096;18.328;2023-02-28T14:13:42;7.70;61.50
21282;DHT22;10800;53.096;18.328;2023-02-28T14:19:09;7.60;60.80
21282;DHT22;10800;53.096;18.328;2023-02-28T14:40:19;7.10;64.00
21282;DHT22;10800;53.096;18.328;2023-02-28T14:45:26;7.10;67.00
21282;DHT22;10800;53.096;18.328;2023-02-28T14:50:37;6.80;67.70
21282;DHT22;10800;53.096;18.328;2023-02-28T14:55:46;6.70;68.00
21282;DHT22;10800;53.096;18.328;2023-02-28T15:00:53;6.50;67.10
21282;DHT22;10800;53.096;18.328;2023-02-28T15:06:01;6.40;66.70
21282;DHT22;10800;53.096;18.328;2023-02-28T15:11:12;6.30;66.10
21282;DHT22;10800;53.096;18.328;2023-02-28T15:16:30;6.10;65.80
21282;DHT22;10800;53.096;18.328;2023-02-28T15:21:39;6.00;66.40
21282;DHT22;10800;53.096;18.328;2023-02-28T15:26:46;5.80;67.30
21282;DHT22;10800;53.096;18.328;2023-02-28T15:32:03;5.70;67.80
21282;DHT22;10800;53.096;18.328;2023-02-28T15:42:39;5.40;69.00
21282;DHT22;10800;53.096;18.328;2023-02-28T15:47:46;5.20;69.50
21282;DHT22;10800;53.096;18.328;2023-02-28T15:52:52;5.10;69.60
21282;DHT22;10800;53.096;18.328;2023-02-28T15:58:00;5.00;70.10
21282;DHT22;10800;53.096;18.328;2023-02-28T16:03:35;4.80;70.90
21282;DHT22;10800;53.096;18.328;2023-02-28T16:08:35;4.60;71.40
21282;DHT22;10800;53.096;18.328;2023-02-28T16:13:40;4.40;71.70
21282;DHT22;10800;53.096;18.328;2023-02-28T16:18:45;4.20;72.50
21282;DHT22;10800;53.096;18.328;2023-02-28T16:23:51;3.90;72.80
21282;DHT22;10800;53.096;18.328;2023-02-28T16:28:56;3.70;74.00
21282;DHT22;10800;53.096;18.328;2023-02-28T16:34:02;3.50;75.10
21282;DHT22;10800;53.096;18.328;2023-02-28T16:39:08;3.30;76.40
21282;DHT22;10800;53.096;18.328;2023-02-28T16:44:33;3.00;77.90
21282;DHT22;10800;53.096;18.328;2023-02-28T16:49:39;2.80;79.10
21282;DHT22;10800;53.096;18.328;2023-02-28T16:54:46;2.60;79.70
21282;DHT22;10800;53.096;18.328;2023-02-28T16:59:51;2.50;80.60
21282;DHT22;10800;53.096;18.328;2023-02-28T17:04:56;2.30;81.80
21282;DHT22;10800;53.096;18.328;2023-02-28T17:10:04;2.00;83.10
21282;DHT22;10800;53.096;18.328;2023-02-28T17:15:12;1.80;83.90
21282;DHT22;10800;53.096;18.328;2023-02-28T17:20:22;1.50;85.00
21282;DHT22;10800;53.096;18.328;2023-02-28T17:25:27;1.40;86.10
21282;DHT22;10800;53.096;18.328;2023-02-28T17:30:34;1.20;86.80
21282;DHT22;10800;53.096;18.328;2023-02-28T17:35:39;0.90;88.30
21282;DHT22;10800;53.096;18.328;2023-02-28T17:40:45;0.80;89.50
21282;DHT22;10800;53.096;18.328;2023-02-28T17:45:52;0.60;90.30
21282;DHT22;10800;53.096;18.328;2023-02-28T17:50:58;0.40;91.00
21282;DHT22;10800;53.096;18.328;2023-02-28T17:56:03;0.30;93.30
21282;DHT22;10800;53.096;18.328;2023-02-28T18:01:09;0.10;94.70
21282;DHT22;10800;53.096;18.328;2023-02-28T18:11:28;0.10;97.00
21282;DHT22;10800;53.096;18.328;2023-02-28T18:16:35;0.00;99.90
21282;DHT22;10800;53.096;18.328;2023-02-28T18:21:45;-0.10;99.90
21282;DHT22;10800;53.096;18.328;2023-02-28T18:26:50;-0.20;99.90
21282;DHT22;10800;53.096;18.328;2023-02-28T18:31:56;-0.30;99.90
21282;DHT22;10800;53.096;18.328;2023-02-28T18:37:01;-0.40;99.90
21282;DHT22;10800;53.096;18.328;2023-02-28T18:42:10;-0.30;99.90
21282;DHT22;10800;53.096;18.328;2023-02-28T18:47:16;-0.40;99.90
21282;DHT22;10800;53.096;18.328;2023-02-28T18:52:28;-0.40;99.90
21282;DHT22;10800;53.096;18.328;2023-02-28T18:57:33;-0.50;99.90
21282;DHT22;10800;53.096;18.328;2023-02-28T19:02:38;-0.70;99.90
21282;DHT22;10800;53.096;18.328;2023-02-28T19:07:44;-0.80;99.90
21282;DHT22;10800;53.096;18.328;2023-02-28T19:12:50;-0.90;99.90
21282;DHT22;10800;53.096;18.328;2023-02-28T19:17:55;-1.00;99.90
21282;DHT22;10800;53.096;18.328;2023-02-28T19:23:00;-1.00;99.90
21282;DHT22;10800;53.096;18.328;2023-02-28T19:28:05;-1.10;99.90
21282;DHT22;10800;53.096;18.328;2023-02-28T19:33:11;-1.20;99.90
21282;DHT22;10800;53.096;18.328;2023-02-28T19:38:19;-1.20;99.90
21282;DHT22;10800;53.096;18.328;2023-02-28T19:43:26;-1.20;99.90
21282;DHT22;10800;53.096;18.328;2023-02-28T19:48:33;-1.30;99.90
21282;DHT22;10800;53.096;18.328;2023-02-28T19:53:40;-1.40;99.90
21282;DHT22;10800;53.096;18.328;2023-02-28T19:58:46;-1.40;99.90
21282;DHT22;10800;53.096;18.328;2023-02-28T20:03:51;-1.50;99.90
21282;DHT22;10800;53.096;18.328;2023-02-28T20:08:57;-1.60;99.90
21282;DHT22;10800;53.096;18.328;2023-02-28T20:14:02;-1.60;99.90
21282;DHT22;10800;53.096;18.328;2023-02-28T20:19:08;-1.70;99.90
21282;DHT22;10800;53.096;18.328;2023-02-28T20:24:13;-1.70;99.90
21282;DHT22;10800;53.096;18.328;2023-02-28T20:29:20;-1.80;99.90
21282;DHT22;10800;53.096;18.328;2023-02-28T20:34:25;-1.80;99.90
21282;DHT22;10800;53.096;18.328;2023-02-28T20:39:30;-1.80;99.90
21282;DHT22;10800;53.096;18.328;2023-02-28T20:44:36;-1.90;99.90
21282;DHT22;10800;53.096;18.328;2023-02-28T20:49:41;-1.90;99.90
21282;DHT22;10800;53.096;18.328;2023-02-28T20:54:46;-2.00;99.90
21282;DHT22;10800;53.096;18.328;2023-02-28T20:59:52;-2.00;99.90
21282;DHT22;10800;53.096;18.328;2023-02-28T21:05:00;-2.00;99.90
21282;DHT22;10800;53.096;18.328;2023-02-28T21:10:05;-2.00;99.90
21282;DHT22;10800;53.096;18.328;2023-02-28T21:15:12;-2.00;99.90
21282;DHT22;10800;53.096;18.328;2023-02-28T21:20:17;-2.20;99.90
21282;DHT22;10800;53.096;18.328;2023-02-28T21:25:25;-2.20;99.90
21282;DHT22;10800;53.096;18.328;2023-02-28T21:30:30;-2.30;99.90
21282;DHT22;10800;53.096;18.328;2023-02-28T21:35:35;-2.40;99.90
21282;DHT22;10800;53.096;18.328;2023-02-28T21:40:41;-2.40;99.90
21282;DHT22;10800;53.096;18.328;2023-02-28T21:45:48;-2.40;99.90
21282;DHT22;10800;53.096;18.328;2023-02-28T21:51:02;-2.50;99.90
21282;DHT22;10800;53.096;18.328;2023-02-28T21:56:08;-2.50;99.90
21282;DHT22;10800;53.096;18.328;2023-02-28T22:01:16;-2.50;99.90
21282;DHT22;10800;53.096;18.328;2023-02-28T22:06:25;-2.60;99.90
21282;DHT22;10800;53.096;18.328;2023-02-28T22:11:30;-2.60;99.90
21282;DHT22;10800;53.096;18.328;2023-02-28T22:16:35;-2.60;99.90
21282;DHT22;10800;53.096;18.328;2023-02-28T22:21:44;-2.60;99.90
21282;DHT22;10800;53.096;18.328;2023-02-28T22:26:52;-2.70;99.90
21282;DHT22;10800;53.096;18.328;2023-02-28T22:31:57;-2.60;99.90
21282;DHT22;10800;53.096;18.328;2023-02-28T22:37:02;-2.50;99.90
21282;DHT22;10800;53.096;18.328;2023-02-28T22:42:07;-2.60;99.90
21282;DHT22;10800;53.096;18.328;2023-02-28T22:47:13;-2.60;99.90
21282;DHT22;10800;53.096;18.328;2023-02-28T22:52:18;-2.60;99.90
21282;DHT22;10800;53.096;18.328;2023-02-28T22:57:23;-2.50;99.90
21282;DHT22;10800;53.096;18.328;2023-02-28T23:02:28;-2.50;99.90
21282;DHT22;10800;53.096;18.328;2023-02-28T23:07:34;-2.50;99.90
21282;DHT22;10800;53.096;18.328;2023-02-28T23:12:39;-2.60;99.90
21282;DHT22;10800;53.096;18.328;2023-02-28T23:17:47;-2.70;99.90
21282;DHT22;10800;53.096;18.328;2023-02-28T23:22:53;-2.80;99.90
21282;DHT22;10800;53.096;18.328;2023-02-28T23:27:58;-2.80;99.90
21282;DHT22;10800;53.096;18.328;2023-02-28T23:33:05;-2.90;99.90
21282;DHT22;10800;53.096;18.328;2023-02-28T23:38:10;-2.80;99.90
21282;DHT22;10800;53.096;18.328;2023-02-28T23:43:16;-2.80;99.90
21282;DHT22;10800;53.096;18.328;2023-02-28T23:48:23;-2.80;99.90
21282;DHT22;10800;53.096;18.328;2023-02-28T23:53:30;-2.80;99.90
21282;DHT22;10800;53.096;18.328;2023-02-28T23:58:36;-2.70;99.90
